createdAt,value
2019-01-31T00:01:45.473Z,0.30
2019-01-31T00:04:30.184Z,0.30
2019-01-31T00:07:12.013Z,0.40
2019-01-31T00:09:47.676Z,0.50
2019-01-31T00:12:38.405Z,0.50
2019-01-31T00:15:23.632Z,0.50
2019-01-31T00:18:05.053Z,0.40
2019-01-31T00:20:46.719Z,0.30
2019-01-31T00:23:28.436Z,0.40
2019-01-31T00:26:16.311Z,0.40
2019-01-31T00:28:55.116Z,0.30
2019-01-31T00:31:42.588Z,0.30
2019-01-31T00:34:27.009Z,0.20
2019-01-31T00:37:08.361Z,0.30
2019-01-31T00:39:49.267Z,0.30
2019-01-31T00:42:24.641Z,0.20
2019-01-31T00:44:57.344Z,0.30
2019-01-31T00:47:57.274Z,0.30
2019-01-31T00:50:32.559Z,0.30
2019-01-31T00:53:17.327Z,0.30
2019-01-31T00:56:12.723Z,0.30
2019-01-31T00:58:53.967Z,0.20
2019-01-31T01:01:56.904Z,0.20
2019-01-31T01:04:44.563Z,0.20
2019-01-31T01:07:52.228Z,0.20
2019-01-31T01:10:39.758Z,0.20
2019-01-31T01:13:15.404Z,0.10
2019-01-31T01:16:04.534Z,0.10
2019-01-31T01:18:43.077Z,-0.10
2019-01-31T01:21:32.275Z,-0.20
2019-01-31T01:24:27.500Z,-0.20
2019-01-31T01:27:24.706Z,-0.30
2019-01-31T01:30:02.886Z,-0.30
2019-01-31T01:32:38.744Z,-0.30
2019-01-31T01:35:14.124Z,-0.30
2019-01-31T01:37:55.188Z,-0.30
2019-01-31T01:41:00.807Z,-0.30
2019-01-31T01:43:42.145Z,-0.40
2019-01-31T01:46:14.917Z,-0.50
2019-01-31T01:49:04.177Z,-0.50
2019-01-31T01:51:57.601Z,-0.50
2019-01-31T01:54:54.446Z,-0.50
2019-01-31T01:57:48.410Z,-0.50
2019-01-31T02:00:27.569Z,-0.50
2019-01-31T02:03:29.229Z,-0.50
2019-01-31T02:06:13.353Z,-0.40
2019-01-31T02:09:07.575Z,-0.40
2019-01-31T02:12:00.740Z,-0.40
2019-01-31T02:14:36.267Z,-0.40
2019-01-31T02:17:11.642Z,-0.40
2019-01-31T02:20:00.885Z,-0.40
2019-01-31T02:22:48.180Z,-0.30
2019-01-31T02:25:20.877Z,-0.10
2019-01-31T02:28:02.461Z,-0.10
2019-01-31T02:30:51.909Z,0.00
2019-01-31T02:33:24.580Z,-0.20
2019-01-31T02:36:09.233Z,-0.30
2019-01-31T02:39:10.897Z,-0.50
2019-01-31T02:42:04.275Z,-0.60
2019-01-31T02:45:00.816Z,-0.70
2019-01-31T02:47:36.244Z,-0.80
2019-01-31T02:50:09.041Z,-0.70
2019-01-31T02:52:43.356Z,-0.70
2019-01-31T02:55:52.156Z,-0.70
2019-01-31T02:58:33.725Z,-0.70
2019-01-31T03:01:14.977Z,-0.70
2019-01-31T03:03:50.434Z,-0.80
2019-01-31T03:06:51.883Z,-0.80
2019-01-31T03:09:54.660Z,-0.80
2019-01-31T03:12:27.008Z,-0.80
2019-01-31T03:15:03.344Z,-0.70
2019-01-31T03:17:55.366Z,-0.70
2019-01-31T03:20:28.163Z,-0.70
2019-01-31T03:23:25.253Z,-0.70
2019-01-31T03:26:31.217Z,-0.80
2019-01-31T03:29:03.985Z,-0.90
2019-01-31T03:31:48.576Z,-0.80
2019-01-31T03:34:36.198Z,-0.80
2019-01-31T03:37:17.178Z,-0.80
2019-01-31T03:40:06.611Z,-0.80
2019-01-31T03:43:03.917Z,-0.80
2019-01-31T03:45:45.714Z,-0.80
2019-01-31T03:48:27.574Z,-0.70
2019-01-31T03:51:20.968Z,-0.70
2019-01-31T03:54:11.405Z,-0.50
2019-01-31T03:56:59.032Z,-0.60
2019-01-31T03:59:31.369Z,-0.60
2019-01-31T04:02:22.053Z,-0.70
2019-01-31T04:05:03.971Z,-0.70
2019-01-31T04:07:33.761Z,-0.90
2019-01-31T04:10:03.743Z,-0.90
2019-01-31T04:12:38.870Z,-0.90
2019-01-31T04:15:09.902Z,-0.90
2019-01-31T04:17:39.640Z,-0.80
2019-01-31T04:20:09.478Z,-1.00
2019-01-31T04:22:39.177Z,-0.90
2019-01-31T04:25:09.058Z,-0.90
2019-01-31T04:27:38.718Z,-0.90
2019-01-31T04:30:11.568Z,-1.00
2019-01-31T04:32:41.360Z,-1.00
2019-01-31T04:35:11.914Z,-1.00
2019-01-31T04:37:41.698Z,-1.00
2019-01-31T04:40:11.534Z,-1.10
2019-01-31T04:42:41.260Z,-1.00
2019-01-31T04:45:11.301Z,-1.10
2019-01-31T04:47:41.086Z,-1.10
2019-01-31T04:50:13.516Z,-1.20
2019-01-31T04:52:43.318Z,-1.20
2019-01-31T04:55:13.054Z,-1.20
2019-01-31T04:57:42.683Z,-1.20
2019-01-31T05:00:15.325Z,-1.10
2019-01-31T05:02:45.185Z,-1.10
2019-01-31T05:05:15.021Z,-1.00
2019-01-31T05:07:44.795Z,-0.80
2019-01-31T05:10:14.627Z,-0.80
2019-01-31T05:12:44.457Z,-0.80
2019-01-31T05:15:15.224Z,-0.80
2019-01-31T05:17:44.847Z,-0.80
2019-01-31T05:20:16.844Z,-0.70
2019-01-31T05:22:46.405Z,-0.50
2019-01-31T05:25:16.452Z,-0.60
2019-01-31T05:27:46.189Z,-0.70
2019-01-31T05:30:16.835Z,-0.90
2019-01-31T05:32:46.542Z,-1.10
2019-01-31T05:35:16.350Z,-1.30
2019-01-31T05:37:46.207Z,-1.30
2019-01-31T05:40:15.948Z,-1.60
2019-01-31T05:42:46.072Z,-1.50
2019-01-31T05:45:16.666Z,-1.40
2019-01-31T05:47:52.341Z,-1.30
2019-01-31T05:50:22.365Z,-1.30
2019-01-31T05:52:52.000Z,-1.20
2019-01-31T05:55:21.737Z,-1.20
2019-01-31T05:57:51.442Z,-1.10
2019-01-31T06:00:25.758Z,-1.20
2019-01-31T06:02:55.517Z,-1.30
2019-01-31T06:05:25.701Z,-1.20
2019-01-31T06:07:55.400Z,-1.20
2019-01-31T06:10:25.198Z,-1.10
2019-01-31T06:12:54.993Z,-1.00
2019-01-31T06:15:24.576Z,-1.10
2019-01-31T06:17:54.254Z,-1.10
2019-01-31T06:20:25.532Z,-1.00
2019-01-31T06:22:55.300Z,-1.10
2019-01-31T06:25:25.088Z,-1.10
2019-01-31T06:27:54.777Z,-1.10
2019-01-31T06:30:24.479Z,-1.10
2019-01-31T06:32:54.073Z,-1.10
2019-01-31T06:35:23.850Z,-1.20
2019-01-31T06:37:53.435Z,-1.30
2019-01-31T06:40:23.072Z,-1.30
2019-01-31T06:42:52.670Z,-1.30
2019-01-31T06:45:22.824Z,-1.20
2019-01-31T06:47:52.581Z,-1.10
2019-01-31T06:50:22.317Z,-1.00
2019-01-31T06:52:52.005Z,-1.00
2019-01-31T06:55:21.765Z,-0.90
2019-01-31T06:57:51.469Z,-0.90
2019-01-31T07:00:24.236Z,-0.90
2019-01-31T07:02:53.980Z,-0.90
2019-01-31T07:05:23.677Z,-0.90
2019-01-31T07:07:53.282Z,-0.90
2019-01-31T07:10:25.148Z,-0.90
2019-01-31T07:12:54.910Z,-1.10
2019-01-31T07:15:30.897Z,-1.20
2019-01-31T07:18:00.673Z,-1.20
2019-01-31T07:20:30.402Z,-1.20
2019-01-31T07:23:00.005Z,-1.20
2019-01-31T07:25:30.828Z,-1.10
2019-01-31T07:28:00.501Z,-1.00
2019-01-31T07:30:30.122Z,-1.00
2019-01-31T07:33:00.402Z,-1.00
2019-01-31T07:35:30.097Z,-0.90
2019-01-31T07:37:59.806Z,-0.80
2019-01-31T07:40:29.498Z,-0.90
2019-01-31T07:42:59.273Z,-0.90
2019-01-31T07:45:31.036Z,-0.90
2019-01-31T07:48:00.710Z,-0.90
2019-01-31T07:50:30.406Z,-0.80
2019-01-31T07:53:00.081Z,-0.80
2019-01-31T07:55:29.697Z,-0.80
2019-01-31T07:57:59.402Z,-0.60
2019-01-31T08:00:29.157Z,-0.50
2019-01-31T08:02:58.829Z,-0.40
2019-01-31T08:05:28.517Z,-0.30
2019-01-31T08:07:58.348Z,-0.20
2019-01-31T08:10:30.817Z,-0.20
2019-01-31T08:13:00.537Z,-0.10
2019-01-31T08:15:30.174Z,-0.10
2019-01-31T08:17:59.786Z,-0.10
2019-01-31T08:20:29.401Z,0.00
2019-01-31T08:23:00.273Z,0.00
2019-01-31T08:25:30.229Z,0.10
2019-01-31T08:28:00.093Z,0.10
2019-01-31T08:30:38.408Z,0.20
2019-01-31T08:33:08.194Z,0.20
2019-01-31T08:35:37.928Z,0.20
2019-01-31T08:38:08.693Z,0.20
2019-01-31T08:40:38.298Z,0.20
2019-01-31T08:43:07.920Z,0.20
2019-01-31T08:45:37.587Z,0.30
2019-01-31T08:48:07.353Z,0.40
2019-01-31T08:50:38.367Z,0.50
2019-01-31T08:53:07.990Z,0.60
2019-01-31T08:55:37.661Z,0.70
2019-01-31T08:58:07.336Z,0.80
2019-01-31T09:00:37.168Z,0.90
2019-01-31T09:03:06.983Z,1.00
2019-01-31T09:05:37.221Z,1.10
2019-01-31T09:08:07.087Z,1.20
2019-01-31T09:10:39.750Z,1.30
2019-01-31T09:13:10.701Z,1.40
2019-01-31T09:15:40.393Z,1.50
2019-01-31T09:18:10.744Z,1.50
2019-01-31T09:20:43.735Z,1.60
2019-01-31T09:23:43.933Z,1.60
2019-01-31T09:26:31.879Z,1.60
2019-01-31T09:29:16.692Z,1.50
2019-01-31T09:32:07.672Z,1.40
2019-01-31T09:34:51.796Z,1.30
2019-01-31T09:37:45.847Z,1.30
2019-01-31T09:40:36.234Z,1.20
2019-01-31T09:43:23.976Z,1.30
2019-01-31T09:46:02.806Z,1.30
2019-01-31T09:48:36.075Z,1.40
2019-01-31T09:51:17.193Z,1.40
2019-01-31T09:53:58.885Z,1.40
2019-01-31T09:56:53.456Z,1.40
2019-01-31T09:59:44.232Z,1.50
2019-01-31T10:02:36.510Z,1.40
2019-01-31T10:05:23.880Z,1.50
2019-01-31T10:08:00.097Z,1.70
2019-01-31T10:10:38.443Z,1.80
2019-01-31T10:13:16.832Z,1.90
2019-01-31T10:16:09.067Z,2.00
2019-01-31T10:19:03.637Z,2.10
2019-01-31T10:21:36.328Z,2.10
2019-01-31T10:24:18.584Z,2.20
2019-01-31T10:26:54.496Z,2.20
2019-01-31T10:29:30.384Z,2.20
2019-01-31T10:32:20.191Z,2.10
2019-01-31T10:34:53.983Z,2.10
2019-01-31T10:37:36.066Z,2.00
2019-01-31T10:40:21.497Z,2.00
2019-01-31T10:42:54.285Z,2.00
2019-01-31T10:45:27.672Z,2.00
2019-01-31T10:48:15.557Z,2.20
2019-01-31T10:50:54.176Z,2.30
2019-01-31T10:53:44.175Z,2.40
2019-01-31T10:56:44.542Z,2.40
2019-01-31T10:59:26.483Z,2.40
2019-01-31T11:02:20.528Z,2.50
2019-01-31T11:05:00.186Z,2.50
2019-01-31T11:07:36.204Z,2.50
2019-01-31T11:10:18.037Z,2.50
2019-01-31T11:13:08.114Z,2.50
2019-01-31T11:16:04.077Z,2.50
2019-01-31T11:18:55.109Z,2.60
2019-01-31T11:22:00.405Z,2.60
2019-01-31T11:24:36.500Z,2.60
2019-01-31T11:27:25.013Z,2.60
2019-01-31T11:30:19.606Z,2.70
2019-01-31T11:33:15.451Z,2.70
2019-01-31T11:36:16.457Z,2.70
2019-01-31T11:39:09.365Z,2.80
2019-01-31T11:41:46.042Z,2.70
2019-01-31T11:44:19.794Z,2.60
2019-01-31T11:46:59.444Z,2.70
2019-01-31T11:49:49.919Z,2.80
2019-01-31T11:52:40.956Z,2.80
2019-01-31T11:55:29.573Z,2.90
2019-01-31T11:58:15.321Z,3.00
2019-01-31T12:00:45.725Z,3.00
2019-01-31T12:03:16.008Z,3.10
2019-01-31T12:05:46.335Z,3.10
2019-01-31T12:08:16.636Z,3.30
2019-01-31T12:10:46.910Z,3.30
2019-01-31T12:13:23.697Z,3.30
2019-01-31T12:15:49.470Z,3.40
2019-01-31T12:18:19.800Z,3.30
2019-01-31T12:20:50.230Z,3.40
2019-01-31T12:23:20.496Z,3.40
2019-01-31T12:25:50.705Z,3.40
2019-01-31T12:28:20.861Z,3.40
2019-01-31T12:30:51.157Z,3.40
2019-01-31T12:33:21.285Z,3.30
2019-01-31T12:35:51.478Z,3.40
2019-01-31T12:38:22.632Z,3.40
2019-01-31T12:40:52.948Z,3.40
2019-01-31T12:43:34.342Z,3.30
2019-01-31T12:45:54.930Z,3.20
2019-01-31T12:48:25.277Z,3.20
2019-01-31T12:50:55.605Z,3.20
2019-01-31T12:53:25.904Z,3.20
2019-01-31T12:55:56.304Z,3.20
2019-01-31T12:58:33.285Z,3.20
2019-01-31T13:00:58.356Z,3.30
2019-01-31T13:03:28.586Z,3.20
2019-01-31T13:05:58.872Z,3.20
2019-01-31T13:08:29.029Z,3.10
2019-01-31T13:10:59.212Z,3.10
2019-01-31T13:13:29.666Z,3.10
2019-01-31T13:16:00.164Z,3.10
2019-01-31T13:18:32.199Z,3.20
2019-01-31T13:21:02.797Z,3.10
2019-01-31T13:23:33.158Z,3.20
2019-01-31T13:26:03.468Z,3.30
2019-01-31T13:28:33.656Z,3.40
2019-01-31T13:31:04.523Z,3.50
2019-01-31T13:33:36.903Z,3.50
2019-01-31T13:36:12.095Z,3.40
2019-01-31T13:38:43.043Z,3.40
2019-01-31T13:41:13.936Z,3.40
2019-01-31T13:43:57.089Z,3.30
2019-01-31T13:46:19.409Z,3.30
2019-01-31T13:48:50.862Z,3.20
2019-01-31T13:51:21.045Z,3.10
2019-01-31T13:53:51.299Z,3.20
2019-01-31T13:56:21.556Z,3.20
2019-01-31T13:58:51.744Z,3.20
2019-01-31T14:01:21.905Z,3.20
2019-01-31T14:03:52.237Z,3.20
2019-01-31T14:06:22.473Z,3.20
2019-01-31T14:08:52.656Z,3.10
2019-01-31T14:11:22.830Z,3.10
2019-01-31T14:13:53.218Z,3.20
2019-01-31T14:16:23.516Z,3.30
2019-01-31T14:18:54.515Z,3.40
2019-01-31T14:21:25.024Z,3.40
2019-01-31T14:23:55.198Z,3.50
2019-01-31T14:26:25.545Z,3.60
2019-01-31T14:28:55.746Z,3.60
2019-01-31T14:31:28.455Z,3.60
2019-01-31T14:34:00.636Z,3.60
2019-01-31T14:36:30.805Z,3.70
2019-01-31T14:39:01.531Z,3.70
2019-01-31T14:41:39.457Z,3.70
2019-01-31T14:44:19.867Z,3.70
2019-01-31T14:46:41.441Z,3.70
2019-01-31T14:49:11.633Z,3.60
2019-01-31T14:51:41.873Z,3.60
2019-01-31T14:54:12.060Z,3.50
2019-01-31T14:56:42.341Z,3.50
2019-01-31T14:59:12.624Z,3.40
2019-01-31T15:01:43.035Z,3.30
2019-01-31T15:04:13.406Z,3.30
2019-01-31T15:06:43.653Z,3.20
2019-01-31T15:09:15.561Z,3.20
2019-01-31T15:11:45.856Z,3.20
2019-01-31T15:14:16.049Z,3.10
2019-01-31T15:16:46.202Z,3.10
2019-01-31T15:19:16.565Z,3.10
2019-01-31T15:21:46.735Z,3.10
2019-01-31T15:24:17.191Z,3.00
2019-01-31T15:26:47.472Z,3.00
2019-01-31T15:29:17.666Z,3.00
2019-01-31T15:31:48.029Z,3.00
2019-01-31T15:34:18.225Z,3.00
2019-01-31T15:36:48.666Z,3.00
2019-01-31T15:39:18.932Z,3.00
2019-01-31T15:41:49.098Z,3.00
2019-01-31T15:44:19.352Z,3.00
2019-01-31T15:46:49.585Z,3.00
2019-01-31T15:49:19.859Z,2.90
2019-01-31T15:51:50.213Z,2.80
2019-01-31T15:54:20.458Z,2.80
2019-01-31T15:56:50.693Z,2.80
2019-01-31T15:59:20.883Z,2.80
2019-01-31T16:01:51.294Z,2.80
2019-01-31T16:04:21.561Z,2.80
2019-01-31T16:06:52.265Z,2.70
2019-01-31T16:09:24.222Z,2.70
2019-01-31T16:11:54.761Z,2.60
2019-01-31T16:14:25.113Z,2.60
2019-01-31T16:16:55.321Z,2.50
2019-01-31T16:19:25.582Z,2.50
2019-01-31T16:21:55.797Z,2.30
2019-01-31T16:24:26.121Z,2.30
2019-01-31T16:26:56.426Z,2.20
2019-01-31T16:29:26.749Z,2.20
2019-01-31T16:31:57.044Z,2.20
2019-01-31T16:34:27.494Z,2.10
2019-01-31T16:36:58.313Z,2.00
2019-01-31T16:39:28.632Z,2.00
2019-01-31T16:41:59.133Z,2.00
2019-01-31T16:44:29.361Z,2.00
2019-01-31T16:47:00.102Z,1.80
2019-01-31T16:49:30.306Z,1.80
2019-01-31T16:52:00.579Z,1.80
2019-01-31T16:54:30.900Z,1.80
2019-01-31T16:57:01.157Z,1.80
2019-01-31T16:59:31.666Z,1.80
2019-01-31T17:02:01.422Z,1.70
2019-01-31T17:04:31.148Z,1.70
2019-01-31T17:07:01.332Z,1.70
2019-01-31T17:09:31.694Z,1.70
2019-01-31T17:12:02.017Z,1.60
2019-01-31T17:14:32.245Z,1.60
2019-01-31T17:17:02.505Z,1.60
2019-01-31T17:19:33.022Z,1.50
2019-01-31T17:22:03.352Z,1.50
2019-01-31T17:24:33.084Z,1.50
2019-01-31T17:27:03.417Z,1.50
2019-01-31T17:29:33.712Z,1.50
2019-01-31T17:32:04.242Z,1.50
2019-01-31T17:34:34.673Z,1.50
2019-01-31T17:37:05.195Z,1.50
2019-01-31T17:39:35.482Z,1.50
2019-01-31T17:42:05.920Z,1.60
2019-01-31T17:44:36.408Z,1.60
2019-01-31T17:47:06.713Z,1.60
2019-01-31T17:49:37.697Z,1.40
2019-01-31T17:52:07.644Z,1.40
2019-01-31T17:54:37.388Z,1.40
2019-01-31T17:57:07.342Z,1.20
2019-01-31T17:59:37.845Z,1.10
2019-01-31T18:02:07.925Z,1.10
2019-01-31T18:04:38.821Z,1.10
2019-01-31T18:07:09.158Z,1.20
2019-01-31T18:09:39.289Z,1.10
2019-01-31T18:12:10.139Z,1.00
2019-01-31T18:14:40.093Z,1.00
2019-01-31T18:17:10.074Z,1.00
2019-01-31T18:19:40.034Z,1.00
2019-01-31T18:22:09.789Z,1.00
2019-01-31T18:24:39.991Z,1.00
2019-01-31T18:27:15.877Z,1.00
2019-01-31T18:29:46.113Z,1.00
2019-01-31T18:32:16.077Z,1.10
2019-01-31T18:34:46.025Z,1.10
2019-01-31T18:37:15.761Z,1.00
2019-01-31T18:39:45.790Z,1.00
2019-01-31T18:42:16.086Z,1.00
2019-01-31T18:44:47.178Z,1.10
2019-01-31T18:47:18.555Z,1.10
2019-01-31T18:49:49.122Z,1.00
2019-01-31T18:52:19.702Z,1.00
2019-01-31T18:54:50.091Z,1.00
2019-01-31T18:57:20.190Z,1.00
2019-01-31T18:59:50.424Z,1.10
2019-01-31T19:02:21.056Z,1.10
2019-01-31T19:04:51.904Z,1.20
2019-01-31T19:07:23.276Z,1.20
2019-01-31T19:09:54.414Z,1.20
2019-01-31T19:12:24.365Z,1.20
2019-01-31T19:14:55.869Z,1.10
2019-01-31T19:17:25.946Z,1.00
2019-01-31T19:19:56.097Z,1.00
2019-01-31T19:22:26.701Z,1.10
2019-01-31T19:24:56.973Z,1.20
2019-01-31T19:27:28.243Z,1.20
2019-01-31T19:29:59.278Z,1.20
2019-01-31T19:32:30.108Z,1.20
2019-01-31T19:35:01.628Z,1.20
2019-01-31T19:37:32.288Z,1.20
2019-01-31T19:40:03.317Z,1.20
2019-01-31T19:42:34.677Z,1.20
2019-01-31T19:45:08.909Z,1.30
2019-01-31T19:47:40.129Z,1.30
2019-01-31T19:50:11.980Z,1.30
2019-01-31T19:52:42.627Z,1.40
2019-01-31T19:55:13.149Z,1.40
2019-01-31T19:57:44.197Z,1.50
2019-01-31T20:00:25.231Z,1.50
2019-01-31T20:02:56.957Z,1.60
2019-01-31T20:05:28.842Z,1.70
2019-01-31T20:08:00.648Z,1.70
2019-01-31T20:10:32.394Z,1.70
2019-01-31T20:13:04.511Z,1.80
2019-01-31T20:15:35.997Z,1.80
2019-01-31T20:18:07.065Z,1.80
2019-01-31T20:20:38.796Z,1.80
2019-01-31T20:23:11.091Z,1.80
2019-01-31T20:25:42.525Z,1.80
2019-01-31T20:28:13.850Z,1.90
2019-01-31T20:30:45.009Z,1.90
2019-01-31T20:33:15.188Z,1.90
2019-01-31T20:35:46.358Z,1.90
2019-01-31T20:38:18.060Z,1.90
2019-01-31T20:40:49.484Z,2.00
2019-01-31T20:43:20.479Z,2.00
2019-01-31T20:45:51.328Z,2.00
2019-01-31T20:48:22.702Z,2.10
2019-01-31T20:50:53.848Z,2.10
2019-01-31T20:53:25.214Z,2.10
2019-01-31T20:55:56.549Z,2.10
2019-01-31T20:58:27.988Z,2.10
2019-01-31T21:00:59.652Z,2.10
2019-01-31T21:03:31.229Z,2.10
2019-01-31T21:06:02.248Z,2.20
2019-01-31T21:08:34.478Z,2.20
2019-01-31T21:11:07.647Z,2.30
2019-01-31T21:13:38.929Z,2.30
2019-01-31T21:16:09.958Z,2.30
2019-01-31T21:18:41.084Z,2.40
2019-01-31T21:21:11.593Z,2.40
2019-01-31T21:23:42.532Z,2.50
2019-01-31T21:26:13.846Z,2.50
2019-01-31T21:28:44.591Z,2.60
2019-01-31T21:31:15.090Z,2.60
2019-01-31T21:33:45.558Z,2.60
2019-01-31T21:36:15.865Z,2.60
2019-01-31T21:38:46.406Z,2.60
2019-01-31T21:41:16.910Z,2.60
2019-01-31T21:43:47.263Z,2.60
2019-01-31T21:46:17.572Z,2.60
2019-01-31T21:48:47.936Z,2.70
2019-01-31T21:51:18.446Z,2.70
2019-01-31T21:53:49.082Z,2.70
2019-01-31T21:56:19.566Z,2.70
2019-01-31T21:58:49.836Z,2.70
2019-01-31T22:01:20.176Z,2.70
2019-01-31T22:03:50.370Z,2.70
2019-01-31T22:06:22.735Z,2.70
2019-01-31T22:08:52.377Z,2.70
2019-01-31T22:11:22.565Z,2.70
2019-01-31T22:13:52.736Z,2.70
2019-01-31T22:16:23.032Z,2.70
2019-01-31T22:18:53.215Z,2.70
2019-01-31T22:21:23.500Z,2.80
2019-01-31T22:23:53.670Z,2.80
2019-01-31T22:26:23.929Z,2.80
2019-01-31T22:28:54.103Z,2.80
2019-01-31T22:31:24.293Z,2.70
2019-01-31T22:33:54.467Z,2.70
2019-01-31T22:36:24.743Z,2.70
2019-01-31T22:38:55.077Z,2.70
2019-01-31T22:41:25.442Z,2.70
2019-01-31T22:43:55.620Z,2.70
2019-01-31T22:46:25.978Z,2.70
2019-01-31T22:48:58.017Z,2.70
2019-01-31T22:51:28.309Z,2.70
2019-01-31T22:53:59.581Z,2.70
2019-01-31T22:56:29.887Z,2.70
2019-01-31T22:59:00.209Z,2.80
2019-01-31T23:01:32.565Z,2.80
2019-01-31T23:04:02.908Z,2.90
2019-01-31T23:06:33.378Z,2.90
2019-01-31T23:09:05.098Z,2.90
2019-01-31T23:11:35.280Z,2.90
2019-01-31T23:14:05.589Z,2.90
2019-01-31T23:16:35.857Z,2.90
2019-01-31T23:19:06.373Z,2.90
2019-01-31T23:21:36.906Z,2.80
2019-01-31T23:24:07.319Z,2.80
2019-01-31T23:26:37.588Z,2.70
2019-01-31T23:29:08.096Z,2.80
2019-01-31T23:31:38.439Z,2.80
2019-01-31T23:34:08.769Z,2.80
2019-01-31T23:36:39.062Z,2.90
2019-01-31T23:39:09.855Z,2.90
2019-01-31T23:41:40.218Z,2.90
2019-01-31T23:44:10.537Z,2.90
2019-01-31T23:46:40.716Z,2.90
2019-01-31T23:49:10.884Z,2.90
2019-01-31T23:51:41.318Z,2.80
2019-01-31T23:54:11.485Z,2.60
2019-01-31T23:56:41.753Z,2.50
2019-01-31T23:59:12.020Z,2.50
